Time;durP1;ratioP1;P1;durP2;ratioP2;P2;SDS_P1;SDS_P2;PMS_P1;PMS_P2;Temp;Humidity;BMP_temperature;BMP_pressure;BME280_temperature;BME280_humidity;BME280_pressure;Samples;Min_cycle;Max_cycle;Signal;HPM_P1;HPM_P2
2022/05/11 13:35:29;;;;;;;12.45;3.65;;;15.70;99.90;;;;;;5110673;27;20430;-48
2022/05/11 13:37:55;;;;;;;9.98;3.47;;;15.50;99.90;;;;;;5105881;28;20080;-47
2022/05/11 13:40:23;;;;;;;13.43;3.08;;;15.60;99.90;;;;;;5090498;28;20445;-55
2022/05/11 13:42:50;;;;;;;9.77;2.92;;;15.60;99.90;;;;;;5092370;28;20054;-51
2022/05/11 13:45:16;;;;;;;10.55;2.85;;;15.50;99.90;;;;;;5090435;28;20494;-47
2022/05/11 13:50:28;;;;;;;9.27;2.72;;;15.30;99.90;;;;;;5090360;28;20414;-49
2022/05/11 13:52:56;;;;;;;6.53;2.70;;;15.30;99.90;;;;;;5090889;28;20044;-52
2022/05/11 13:55:23;;;;;;;7.95;2.33;;;15.20;99.90;;;;;;5090377;28;20102;-53
2022/05/11 13:57:49;;;;;;;8.95;2.28;;;15.10;99.90;;;;;;5090231;28;20036;-51
2022/05/11 14:00:16;;;;;;;8.32;2.00;;;15.20;99.90;;;;;;5083617;28;20036;-52
2022/05/11 14:02:43;;;;;;;4.53;1.60;;;15.20;99.90;;;;;;5083618;28;20040;-50
2022/05/11 14:05:10;;;;;;;4.55;1.70;;;15.20;99.90;;;;;;5083419;28;20505;-47
2022/05/11 14:07:37;;;;;;;4.03;1.40;;;15.30;99.90;;;;;;5089866;28;20069;-53
2022/05/11 14:10:03;;;;;;;7.00;1.80;;;15.30;99.90;;;;;;5089864;28;20044;-48
2022/05/11 14:12:30;;;;;;;3.92;1.60;;;15.30;99.90;;;;;;5089712;28;20045;-51
2022/05/11 14:14:57;;;;;;;5.00;1.55;;;15.40;99.90;;;;;;5089617;28;20040;-51
2022/05/11 14:17:24;;;;;;;6.05;1.30;;;15.50;99.90;;;;;;5089361;28;20044;-56
2022/05/11 14:19:51;;;;;;;3.35;1.25;;;15.60;99.90;;;;;;5089300;28;20147;-56
2022/05/11 14:22:18;;;;;;;4.88;1.10;;;15.60;99.90;;;;;;5092464;28;20483;-53
2022/05/11 14:24:44;;;;;;;4.10;1.58;;;15.50;99.90;;;;;;5090245;28;20040;-53
2022/05/11 14:27:12;;;;;;;2.53;1.08;;;15.50;99.90;;;;;;5089296;28;20052;-53
2022/05/11 14:29:38;;;;;;;6.63;1.27;;;15.60;99.90;;;;;;5090590;28;20041;-48
2022/05/11 14:32:05;;;;;;;5.32;1.38;;;15.60;99.90;;;;;;5089076;28;20045;-52
2022/05/11 14:34:32;;;;;;;4.25;1.75;;;15.60;99.90;;;;;;5088981;28;20060;-47
2022/05/11 14:37:01;;;;;;;3.67;1.33;;;15.50;99.90;;;;;;5093075;28;20061;-52
2022/05/11 14:39:28;;;;;;;4.65;1.35;;;15.40;99.90;;;;;;5088973;28;20036;-54
2022/05/11 14:41:57;;;;;;;3.72;1.30;;;15.30;99.90;;;;;;5089004;28;20056;-51
2022/05/11 14:44:23;;;;;;;4.30;1.27;;;15.20;99.90;;;;;;5088702;28;20048;-55
2022/05/11 14:47:10;;;;;;;3.92;1.40;;;15.20;99.90;;;;;;5075360;28;20048;-49
2022/05/11 14:49:37;;;;;;;5.72;1.40;;;15.30;99.90;;;;;;5075655;28;20533;-55
2022/05/11 14:52:04;;;;;;;3.47;1.40;;;15.40;99.90;;;;;;5075407;28;20127;-51
2022/05/11 14:54:30;;;;;;;4.43;1.30;;;15.40;99.90;;;;;;5075125;28;20037;-52
2022/05/11 15:02:28;;;;;;;4.00;1.02;;;15.50;99.90;;;;;;5074744;28;20487;-53
2022/05/11 15:04:55;;;;;;;4.35;1.50;;;15.50;99.90;;;;;;5075124;28;20041;-56
2022/05/11 15:07:22;;;;;;;4.68;1.50;;;15.40;99.90;;;;;;5075466;28;20391;-54
2022/05/11 15:09:49;;;;;;;2.67;1.20;;;15.40;99.90;;;;;;5075243;28;20504;-48
2022/05/11 15:15:02;;;;;;;;;;;15.30;99.90;;;;;;5075169;28;20046;-51
2022/05/11 15:17:29;;;;;;;3.72;1.10;;;15.30;99.90;;;;;;5074919;28;19971;-54
2022/05/11 15:20:15;;;;;;;4.97;1.20;;;15.20;99.90;;;;;;5073201;28;20094;-48
2022/05/11 15:22:43;;;;;;;3.75;1.15;;;15.20;99.90;;;;;;5075053;28;20045;-50
2022/05/11 15:25:13;;;;;;;3.95;1.17;;;15.20;99.90;;;;;;5074856;28;20127;-48
2022/05/11 15:27:40;;;;;;;3.22;1.45;;;15.30;99.90;;;;;;5074846;28;20456;-49
2022/05/11 15:30:06;;;;;;;2.13;0.98;;;15.40;99.90;;;;;;5074621;28;20048;-51
2022/05/11 15:32:34;;;;;;;3.03;1.20;;;15.40;99.90;;;;;;5074607;28;20124;-52
2022/05/11 15:35:01;;;;;;;4.13;1.00;;;15.40;99.90;;;;;;5074672;28;20094;-52
2022/05/11 15:37:27;;;;;;;3.60;1.15;;;15.40;99.90;;;;;;5077046;28;20036;-52
2022/05/11 15:39:54;;;;;;;1.90;0.80;;;15.50;99.90;;;;;;5077217;28;20044;-50
2022/05/11 15:42:23;;;;;;;4.18;0.90;;;15.50;99.90;;;;;;5074614;28;20040;-52
2022/05/11 15:44:50;;;;;;;2.38;1.10;;;15.60;99.90;;;;;;5074394;28;20102;-53
2022/05/11 15:47:17;;;;;;;3.92;1.00;;;15.70;99.90;;;;;;5073764;28;20068;-51
2022/05/11 15:49:44;;;;;;;3.72;0.80;;;15.80;99.90;;;;;;5073691;28;20060;-45
2022/05/11 15:52:10;;;;;;;3.33;0.95;;;15.70;99.90;;;;;;5073787;28;20037;-50
2022/05/11 15:54:43;;;;;;;2.45;0.90;;;15.70;99.90;;;;;;5073740;28;20139;-53
2022/05/11 15:57:09;;;;;;;2.95;0.90;;;15.70;99.90;;;;;;5072894;28;20040;-46
2022/05/11 15:59:36;;;;;;;1.73;0.90;;;15.70;99.90;;;;;;5074281;28;20040;-51
2022/05/11 16:02:03;;;;;;;3.90;0.93;;;15.60;99.90;;;;;;5074155;28;20040;-51
2022/05/11 16:04:30;;;;;;;2.97;1.10;;;15.50;99.90;;;;;;5074654;28;20068;-57
2022/05/11 16:06:57;;;;;;;2.47;1.38;;;15.50;99.90;;;;;;5076622;28;20072;-53
2022/05/11 16:09:23;;;;;;;4.85;2.15;;;15.40;99.90;;;;;;5077218;28;20090;-50
2022/05/11 16:11:50;;;;;;;3.95;1.50;;;15.40;99.90;;;;;;5076287;28;20115;-54
2022/05/11 16:14:18;;;;;;;4.30;1.80;;;15.40;99.90;;;;;;5073812;28;20040;-50
2022/05/11 16:16:44;;;;;;;3.40;1.48;;;15.50;99.90;;;;;;5073720;28;20142;-50
2022/05/11 16:21:57;;;;;;;2.53;1.10;;;15.90;99.90;;;;;;5073912;28;20044;-52
2022/05/11 16:24:24;;;;;;;2.55;1.20;;;16.20;99.90;;;;;;5073497;28;20098;-53
2022/05/11 16:26:51;;;;;;;4.07;1.10;;;16.50;99.90;;;;;;5072186;28;20453;-56
2022/05/11 16:29:17;;;;;;;3.17;1.20;;;16.90;99.90;;;;;;5073455;28;20086;-52
2022/05/11 16:31:50;;;;;;;3.78;0.90;;;17.20;99.90;;;;;;5073504;28;20107;-51
2022/05/11 16:34:17;;;;;;;2.00;1.20;;;17.70;99.90;;;;;;5073324;28;20468;-55
2022/05/11 16:36:44;;;;;;;3.45;1.10;;;17.80;99.90;;;;;;5080248;28;20047;-54
2022/05/11 16:39:12;;;;;;;3.35;1.00;;;17.50;99.90;;;;;;5073694;28;20044;-53
2022/05/11 16:41:39;;;;;;;2.10;0.80;;;17.10;99.90;;;;;;5073198;28;20136;-54
2022/05/11 16:44:06;;;;;;;3.75;1.00;;;16.90;99.90;;;;;;5073434;28;20044;-54
2022/05/11 16:46:32;;;;;;;6.18;1.85;;;16.70;99.90;;;;;;5077012;28;20040;-52
2022/05/11 16:48:59;;;;;;;5.03;1.55;;;16.50;99.90;;;;;;5073234;28;20068;-51
2022/05/11 16:51:26;;;;;;;4.10;1.42;;;16.30;99.90;;;;;;5074756;28;20037;-51
2022/05/11 16:53:53;;;;;;;3.00;1.35;;;16.20;99.90;;;;;;5077931;28;20041;-53
2022/05/11 16:56:19;;;;;;;3.78;1.38;;;16.00;99.90;;;;;;5073095;28;20047;-51
2022/05/11 16:58:46;;;;;;;2.85;1.20;;;16.00;99.90;;;;;;5075855;28;20090;-54
2022/05/11 17:01:13;;;;;;;2.47;1.45;;;15.90;99.90;;;;;;5077004;28;20040;-54
2022/05/11 17:03:40;;;;;;;4.50;1.55;;;15.80;99.90;;;;;;5073062;28;20045;-53
2022/05/11 17:06:07;;;;;;;3.75;1.33;;;15.80;99.90;;;;;;5072706;28;20048;-51
2022/05/11 17:08:34;;;;;;;3.35;1.50;;;15.80;99.90;;;;;;5072802;28;20349;-53
2022/05/11 17:11:01;;;;;;;3.35;1.20;;;15.90;99.90;;;;;;5076844;28;20051;-53
2022/05/11 17:13:28;;;;;;;2.78;1.50;;;15.80;99.90;;;;;;5072835;28;20040;-47
2022/05/11 17:15:56;;;;;;;2.20;1.20;;;15.80;99.90;;;;;;5072764;28;20479;-48
2022/05/11 17:18:23;;;;;;;2.45;1.10;;;15.70;99.90;;;;;;5072769;28;20153;-53
2022/05/11 17:20:49;;;;;;;5.00;1.40;;;15.90;99.90;;;;;;5072788;28;20094;-51
2022/05/11 17:23:16;;;;;;;2.95;1.20;;;16.40;99.90;;;;;;5072685;28;20076;-55
2022/05/11 17:25:43;;;;;;;2.30;1.30;;;17.00;99.90;;;;;;5072627;28;20352;-55
2022/05/11 17:28:09;;;;;;;3.42;1.20;;;17.00;99.90;;;;;;5072696;28;20040;-49
2022/05/11 17:30:36;;;;;;;3.65;1.23;;;16.80;99.90;;;;;;5072486;28;20045;-50
2022/05/11 17:33:03;;;;;;;5.07;1.60;;;16.40;99.90;;;;;;5072594;28;20036;-51
2022/05/11 17:35:32;;;;;;;3.67;1.23;;;16.30;99.90;;;;;;5077514;28;20047;-50
2022/05/11 17:37:59;;;;;;;2.30;1.10;;;16.10;99.90;;;;;;5072017;28;20491;-52
2022/05/11 17:40:25;;;;;;;1.70;0.90;;;16.10;99.90;;;;;;5072664;28;20036;-51
2022/05/11 17:42:52;;;;;;;4.00;1.15;;;16.00;99.90;;;;;;5074962;28;20101;-48
2022/05/11 17:45:19;;;;;;;3.15;1.13;;;16.10;99.90;;;;;;5074282;28;20041;-51
2022/05/11 17:47:46;;;;;;;3.28;1.20;;;16.10;99.90;;;;;;5072502;28;20049;-51
2022/05/11 17:50:18;;;;;;;3.80;1.30;;;16.10;99.90;;;;;;5072475;28;20499;-51
2022/05/11 17:52:45;;;;;;;2.63;1.40;;;16.00;99.90;;;;;;5072556;28;20460;-53
2022/05/11 17:55:12;;;;;;;4.25;1.02;;;15.90;99.90;;;;;;5072163;28;20045;-54
2022/05/11 17:57:38;;;;;;;3.97;1.00;;;15.90;99.90;;;;;;5070927;28;20372;-52
2022/05/11 18:00:05;;;;;;;3.17;1.00;;;16.30;99.90;;;;;;5072424;28;20545;-50
2022/05/11 18:02:37;;;;;;;3.13;1.10;;;16.80;99.90;;;;;;5072466;28;20080;-53
2022/05/11 18:05:04;;;;;;;4.05;1.45;;;17.40;99.90;;;;;;5072411;28;20093;-56
2022/05/11 18:07:30;;;;;;;5.30;1.30;;;17.80;99.30;;;;;;5072291;28;20045;-56
2022/05/11 18:09:57;;;;;;;4.03;1.00;;;18.00;98.80;;;;;;5072423;28;20044;-49
2022/05/11 18:12:24;;;;;;;2.38;1.20;;;18.10;98.60;;;;;;5072552;28;20049;-51
2022/05/11 18:14:51;;;;;;;3.70;1.13;;;17.70;98.30;;;;;;5073150;28;20048;-52
2022/05/11 18:17:18;;;;;;;4.93;1.38;;;17.20;98.40;;;;;;5072096;28;20097;-48
2022/05/11 18:19:45;;;;;;;3.60;1.40;;;16.90;99.40;;;;;;5072446;28;20036;-55
2022/05/11 18:22:12;;;;;;;6.47;1.73;;;16.60;99.60;;;;;;5075183;28;20119;-51
2022/05/11 18:24:39;;;;;;;5.40;1.20;;;16.40;99.90;;;;;;5077163;28;20411;-51
2022/05/11 18:27:06;;;;;;;3.30;1.30;;;16.30;99.90;;;;;;5080083;28;20064;-52
2022/05/11 18:29:32;;;;;;;6.05;1.45;;;16.20;99.90;;;;;;5077299;28;20446;-50
2022/05/11 18:32:02;;;;;;;3.35;1.50;;;16.00;99.90;;;;;;5076141;28;20040;-49
2022/05/11 18:34:29;;;;;;;3.72;1.30;;;15.90;99.90;;;;;;5079632;28;20402;-50
2022/05/11 18:36:55;;;;;;;4.72;1.77;;;15.80;99.90;;;;;;5077580;28;20123;-51
2022/05/11 18:39:26;;;;;;;3.80;1.58;;;15.80;99.90;;;;;;5076074;28;20106;-52
2022/05/11 18:41:53;;;;;;;3.25;1.20;;;15.80;99.90;;;;;;5076178;28;20048;-51
2022/05/11 18:44:20;;;;;;;5.13;1.20;;;15.70;99.90;;;;;;5076022;28;20062;-50
2022/05/11 18:46:47;;;;;;;8.48;1.80;;;15.70;99.90;;;;;;5075913;28;20055;-54
2022/05/11 18:49:14;;;;;;;6.10;1.48;;;15.70;99.90;;;;;;5075941;28;20044;-49
2022/05/11 18:51:41;;;;;;;5.45;1.50;;;15.60;99.90;;;;;;5075786;28;20037;-55
2022/05/11 18:54:07;;;;;;;6.57;1.70;;;15.50;99.90;;;;;;5075972;28;20089;-54
2022/05/11 18:56:34;;;;;;;4.30;1.50;;;15.50;99.90;;;;;;5075641;28;20037;-50
2022/05/11 18:59:01;;;;;;;7.80;1.83;;;15.50;99.90;;;;;;5075965;28;20437;-54
2022/05/11 19:01:28;;;;;;;7.68;1.80;;;15.50;99.90;;;;;;5075497;28;20040;-51
2022/05/11 19:03:55;;;;;;;5.78;1.63;;;15.40;99.90;;;;;;5075575;28;20044;-49
2022/05/11 19:06:21;;;;;;;7.75;1.95;;;15.30;99.90;;;;;;5072808;28;20043;-52
2022/05/11 19:08:51;;;;;;;3.17;1.40;;;15.30;99.90;;;;;;5075638;28;20045;-56
2022/05/11 19:11:18;;;;;;;8.23;2.10;;;15.30;99.90;;;;;;5075305;28;20444;-49
2022/05/11 19:13:45;;;;;;;5.05;1.67;;;15.30;99.90;;;;;;5075444;28;20040;-48
2022/05/11 19:16:12;;;;;;;5.30;1.88;;;15.30;99.90;;;;;;5075632;28;20036;-55
2022/05/11 19:18:39;;;;;;;6.95;1.88;;;15.30;99.90;;;;;;5075313;28;20484;-54
2022/05/11 19:21:06;;;;;;;6.07;1.90;;;15.20;99.90;;;;;;5074084;28;20068;-56
2022/05/11 19:23:33;;;;;;;5.88;1.83;;;15.20;99.90;;;;;;5075231;28;20041;-53
2022/05/11 19:26:00;;;;;;;7.75;1.83;;;15.10;99.90;;;;;;5075303;28;20040;-49
2022/05/11 19:28:26;;;;;;;7.03;1.90;;;15.10;99.90;;;;;;5075163;28;20044;-50
2022/05/11 19:30:53;;;;;;;6.30;2.20;;;15.00;99.90;;;;;;5075072;28;20049;-53
2022/05/11 19:33:20;;;;;;;6.10;2.05;;;14.90;99.90;;;;;;5074673;28;20048;-53
2022/05/11 19:35:47;;;;;;;7.00;2.30;;;14.90;99.90;;;;;;5079376;28;20128;-53
2022/05/11 19:38:14;;;;;;;11.20;2.30;;;14.80;99.90;;;;;;5074830;28;20388;-52
2022/05/11 19:40:40;;;;;;;7.75;2.10;;;14.70;99.90;;;;;;5074784;28;20066;-52
2022/05/11 19:43:07;;;;;;;8.88;2.65;;;14.60;99.90;;;;;;5075011;28;20518;-52
2022/05/11 19:45:34;;;;;;;6.68;2.30;;;14.60;99.90;;;;;;5074181;28;20049;-51
2022/05/11 19:48:02;;;;;;;6.68;2.33;;;14.50;99.90;;;;;;5073276;28;20045;-52
2022/05/11 19:50:29;;;;;;;10.98;2.85;;;14.50;99.90;;;;;;5074211;28;20063;-52
2022/05/11 19:52:55;;;;;;;8.32;2.75;;;14.50;99.90;;;;;;5073725;28;20082;-50
2022/05/11 19:55:22;;;;;;;6.57;2.53;;;14.40;99.90;;;;;;5074673;28;20392;-50
2022/05/11 19:57:49;;;;;;;8.85;2.42;;;14.30;99.90;;;;;;5074674;28;20094;-50
2022/05/11 20:00:16;;;;;;;10.13;2.83;;;14.30;99.90;;;;;;5077149;28;20051;-50
2022/05/11 20:02:43;;;;;;;9.77;3.10;;;14.20;99.90;;;;;;5073420;28;20044;-52
2022/05/11 20:05:10;;;;;;;6.28;2.67;;;14.10;99.90;;;;;;5074495;28;20047;-52
2022/05/11 20:07:37;;;;;;;7.28;2.67;;;14.00;99.90;;;;;;5074720;28;20174;-52
2022/05/11 20:10:03;;;;;;;9.52;2.67;;;14.00;99.90;;;;;;5074851;28;20075;-54
2022/05/11 20:12:31;;;;;;;10.27;2.58;;;13.90;99.90;;;;;;5074488;28;20083;-53
2022/05/11 20:14:58;;;;;;;6.88;2.60;;;13.80;99.90;;;;;;5073562;28;20048;-52
2022/05/11 20:17:25;;;;;;;8.05;2.38;;;13.80;99.90;;;;;;5072917;28;20116;-53
2022/05/11 20:19:52;;;;;;;7.85;3.10;;;13.70;99.90;;;;;;5073073;28;20049;-50
2022/05/11 20:22:20;;;;;;;10.15;2.83;;;13.70;99.90;;;;;;5073713;28;20037;-54
2022/05/11 20:24:47;;;;;;;11.05;3.13;;;13.60;99.90;;;;;;5074195;28;20095;-51
2022/05/11 20:27:14;;;;;;;9.07;3.05;;;13.50;99.90;;;;;;5073492;28;20076;-49
